Time;durP1;ratioP1;P1;durP2;ratioP2;P2;SDS_P1;SDS_P2;PMS_P1;PMS_P2;Temp;Humidity;BMP_temperature;BMP_pressure;BME280_temperature;BME280_humidity;BME280_pressure;Samples;Min_cycle;Max_cycle;Signal;HPM_P1;HPM_P2
2021/04/22 00:00:01;;;;;;;10.23;3.40;;;;;;;5.32;57.33;101269.34;5066146;28;20245;-68
2021/04/22 00:02:27;;;;;;;14.67;3.60;;;;;;;5.32;57.78;101277.28;5069737;28;20201;-67
2021/04/22 00:04:53;;;;;;;13.33;3.80;;;;;;;5.30;57.28;101273.81;5065998;28;20216;-68
2021/04/22 00:07:20;;;;;;;13.97;3.43;;;;;;;5.29;57.56;101280.88;5071191;28;20225;-67
2021/04/22 00:09:49;;;;;;;12.97;3.33;;;;;;;5.29;57.62;101286.16;5067886;28;20235;-68
2021/04/22 00:12:15;;;;;;;15.70;4.17;;;;;;;5.29;57.82;101286.16;5066089;28;20193;-68
2021/04/22 00:14:41;;;;;;;11.77;3.50;;;;;;;5.28;57.55;101279.13;5068094;28;20207;-68
2021/04/22 00:17:08;;;;;;;12.57;4.07;;;;;;;5.27;57.74;101274.78;5068429;28;20212;-67
2021/04/22 00:19:35;;;;;;;13.60;3.33;;;;;;;5.28;57.32;101286.19;5067932;28;20227;-69
2021/04/22 00:22:01;;;;;;;14.60;3.90;;;;;;;5.27;57.94;101280.06;5065995;28;20784;-69
2021/04/22 00:24:27;;;;;;;10.33;3.03;;;;;;;5.27;57.98;101287.97;5066520;28;20205;-68
2021/04/22 00:26:53;;;;;;;14.63;3.97;;;;;;;5.27;57.93;101284.47;5063719;28;20443;-68
2021/04/22 00:29:19;;;;;;;16.50;3.87;;;;;;;5.28;57.58;101279.13;5064798;28;20205;-68
2021/04/22 00:31:45;;;;;;;14.50;3.17;;;;;;;5.29;57.35;101288.78;5067372;28;20557;-68
2021/04/22 00:34:11;;;;;;;10.43;3.20;;;;;;;5.29;57.80;101286.16;5070184;28;20309;-69
2021/04/22 00:36:37;;;;;;;11.17;3.60;;;;;;;5.29;57.40;101288.78;5063393;28;20291;-67
2021/04/22 00:39:10;;;;;;;11.47;3.73;;;;;;;5.29;57.65;101288.78;5064778;28;20240;-67
2021/04/22 00:41:37;;;;;;;9.27;3.73;;;;;;;5.28;57.79;101289.72;5064633;28;20234;-68
2021/04/22 00:44:06;;;;;;;16.80;4.03;;;;;;;5.26;57.54;101288.88;5072757;28;20678;-68
2021/04/22 00:46:34;;;;;;;17.77;3.90;;;;;;;5.27;57.32;101287.97;5064351;28;20780;-68
2021/04/22 00:49:00;;;;;;;13.73;3.40;;;;;;;5.27;57.82;101287.97;5060292;28;20678;-67
2021/04/22 00:51:26;;;;;;;14.33;3.63;;;;;;;5.26;57.17;101286.25;5061935;28;20325;-67
2021/04/22 00:53:53;;;;;;;10.10;3.50;;;;;;;5.26;57.08;101288.03;5065600;28;20228;-68
2021/04/22 00:56:19;;;;;;;10.30;3.60;;;;;;;5.26;57.04;101285.38;5066058;28;20204;-68
2021/04/22 00:58:45;;;;;;;17.97;4.07;;;;;;;5.26;57.58;101285.38;5058449;28;20213;-67
2021/04/22 01:01:12;;;;;;;11.73;3.80;;;;;;;5.26;57.44;101285.38;5071561;28;20475;-68
2021/04/22 01:03:38;;;;;;;11.83;4.13;;;;;;;5.24;57.49;101288.06;5067713;28;20200;-68
2021/04/22 01:06:05;;;;;;;13.57;3.70;;;;;;;5.24;56.95;101285.44;5068907;28;20201;-68
2021/04/22 01:08:31;;;;;;;10.83;3.67;;;;;;;5.23;57.10;101303.03;5069004;28;20207;-67
2021/04/22 01:10:57;;;;;;;10.40;3.60;;;;;;;5.22;56.83;101289.88;5069673;28;20227;-68
2021/04/22 01:13:24;;;;;;;14.23;3.63;;;;;;;5.20;56.70;101286.44;5068205;28;20235;-67
2021/04/22 01:15:50;;;;;;;11.33;3.57;;;;;;;5.19;57.19;101287.38;5066513;28;20270;-68
2021/04/22 01:18:17;;;;;;;13.27;3.83;;;;;;;5.20;57.21;101291.72;5065495;28;20209;-67
2021/04/22 01:20:45;;;;;;;15.57;4.57;;;;;;;5.20;57.22;101302.28;5065882;28;20756;-67
2021/04/22 01:23:13;;;;;;;11.37;4.03;;;;;;;5.19;57.22;101296.16;5062945;28;20682;-67
2021/04/22 01:25:41;;;;;;;20.27;3.77;;;;;;;5.21;57.46;101309.28;5067160;28;20571;-67
2021/04/22 01:28:09;;;;;;;13.83;3.70;;;;;;;5.21;57.43;101293.44;5067802;28;20665;-68
2021/04/22 01:30:38;;;;;;;14.23;3.70;;;;;;;5.21;56.96;101304.00;5066339;28;20216;-67
2021/04/22 01:33:05;;;;;;;11.37;3.47;;;;;;;5.21;57.03;101304.00;5063973;28;20671;-68
2021/04/22 01:35:34;;;;;;;12.47;3.77;;;;;;;5.22;57.41;101301.31;5064442;28;20208;-68
2021/04/22 01:38:00;;;;;;;16.40;3.83;;;;;;;5.23;56.85;101296.91;5064255;28;20270;-70
2021/04/22 01:40:28;;;;;;;15.63;3.80;;;;;;;5.24;57.04;101293.34;5069228;28;20450;-69
2021/04/22 01:42:55;;;;;;;16.97;3.30;;;;;;;5.23;56.65;101304.81;5057990;28;20225;-67
2021/04/22 01:45:21;;;;;;;13.83;3.43;;;;;;;5.24;56.48;101303.91;5056263;28;20213;-66
2021/04/22 01:47:48;;;;;;;16.63;4.53;;;;;;;5.26;56.55;101310.00;5061715;28;20224;-68
2021/04/22 01:50:17;;;;;;;16.20;3.63;;;;;;;5.26;56.80;101306.50;5056001;28;20254;-69
2021/04/22 01:52:44;;;;;;;9.97;3.10;;;;;;;5.26;56.83;101302.09;5063350;28;20237;-68
2021/04/22 01:55:13;;;;;;;16.07;3.30;;;;;;;5.27;56.17;101303.81;5065157;28;20208;-67
2021/04/22 01:57:41;;;;;;;11.90;3.50;;;;;;;5.28;56.45;101305.56;5066308;28;20459;-68
2021/04/22 02:00:11;;;;;;;13.87;3.37;;;;;;;5.28;56.41;101308.19;5076508;28;20224;-68
2021/04/22 02:02:37;;;;;;;12.97;3.47;;;;;;;5.30;56.33;101308.16;5061859;28;20234;-68
2021/04/22 02:05:04;;;;;;;9.43;3.10;;;;;;;5.31;56.50;101305.47;5069691;28;20232;-67
2021/04/22 02:07:30;;;;;;;13.00;3.10;;;;;;;5.32;56.35;101306.31;5069440;28;20209;-68
2021/04/22 02:09:56;;;;;;;12.30;3.60;;;;;;;5.34;56.35;101307.16;5069440;28;20608;-68
2021/04/22 02:12:22;;;;;;;12.57;3.07;;;;;;;5.34;56.43;101305.38;5069131;28;20258;-67
2021/04/22 02:14:49;;;;;;;9.53;3.30;;;;;;;5.36;56.67;101303.56;5069946;28;20219;-68
2021/04/22 02:17:15;;;;;;;12.43;2.73;;;;;;;5.37;56.05;101304.41;5064537;28;20250;-68
2021/04/22 02:19:41;;;;;;;9.77;2.70;;;;;;;5.37;56.09;101315.84;5069482;28;20229;-68
2021/04/22 02:22:07;;;;;;;11.23;3.43;;;;;;;5.38;56.28;101312.25;5068505;28;20282;-68
2021/04/22 02:24:33;;;;;;;12.00;3.77;;;;;;;5.38;56.17;101314.91;5069424;28;20217;-68
2021/04/22 02:26:59;;;;;;;9.73;3.00;;;;;;;5.39;56.27;101314.00;5069384;28;20219;-68
2021/04/22 02:29:25;;;;;;;8.13;2.60;;;;;;;5.40;56.38;101317.50;5068923;28;20211;-69
2021/04/22 02:31:52;;;;;;;14.17;3.47;;;;;;;5.40;56.35;101322.78;5063012;28;20682;-67
2021/04/22 02:34:18;;;;;;;13.67;4.27;;;;;;;5.41;56.45;101321.88;5065536;28;20274;-67
2021/04/22 02:36:44;;;;;;;10.63;3.17;;;;;;;5.40;55.99;101321.00;5058656;28;20730;-66
2021/04/22 02:39:10;;;;;;;10.60;2.90;;;;;;;5.40;56.06;101321.00;5067853;28;20299;-67
2021/04/22 02:41:36;;;;;;;12.27;2.93;;;;;;;5.40;56.33;101320.13;5069682;28;20235;-68
2021/04/22 02:44:03;;;;;;;11.43;3.40;;;;;;;5.41;56.47;101322.75;5070669;28;20209;-69
2021/04/22 02:46:29;;;;;;;12.33;2.90;;;;;;;5.42;56.14;101319.19;5073587;28;20266;-68
2021/04/22 02:48:56;;;;;;;15.40;3.60;;;;;;;5.42;56.67;101319.19;5073697;28;20686;-68
2021/04/22 02:51:22;;;;;;;9.83;2.90;;;;;;;5.43;56.27;101314.75;5070316;28;20224;-68
2021/04/22 02:53:48;;;;;;;9.67;2.97;;;;;;;5.44;56.57;101324.41;5073400;28;20212;-68
2021/04/22 02:56:14;;;;;;;14.27;3.60;;;;;;;5.44;56.56;101314.72;5061878;28;20639;-68
2021/04/22 02:58:40;;;;;;;9.67;3.40;;;;;;;5.43;56.76;101317.41;5073270;28;20354;-68
2021/04/22 03:01:06;;;;;;;11.30;3.37;;;;;;;5.43;56.93;101312.13;5072974;28;20839;-68
2021/04/22 03:03:32;;;;;;;11.30;3.60;;;;;;;5.43;57.04;101312.13;5072912;28;20197;-69
2021/04/22 03:05:59;;;;;;;11.67;2.70;;;;;;;5.43;57.22;101320.06;5059384;28;20212;-67
2021/04/22 03:08:25;;;;;;;12.87;3.00;;;;;;;5.43;57.38;101315.63;5062433;28;20204;-68
2021/04/22 03:10:51;;;;;;;11.77;3.33;;;;;;;5.43;57.41;101320.91;5072940;28;20220;-68
2021/04/22 03:13:17;;;;;;;13.67;3.93;;;;;;;5.42;57.36;101315.69;5071603;28;20227;-68
2021/04/22 03:15:44;;;;;;;9.27;2.57;;;;;;;5.42;57.38;101327.09;5066427;28;20212;-68
2021/04/22 03:18:10;;;;;;;11.97;3.30;;;;;;;5.40;57.36;101326.28;5071970;28;20208;-68
2021/04/22 03:20:37;;;;;;;13.67;3.23;;;;;;;5.40;57.45;101322.78;5072469;28;20236;-67
2021/04/22 03:23:04;;;;;;;11.13;2.90;;;;;;;5.38;57.80;101322.81;5072590;28;20216;-68
2021/04/22 03:25:30;;;;;;;14.07;2.90;;;;;;;5.39;58.25;101323.69;5070199;28;20208;-68
2021/04/22 03:27:57;;;;;;;16.70;2.73;;;;;;;5.38;58.11;101330.75;5073149;28;20204;-68
2021/04/22 03:30:27;;;;;;;9.90;2.63;;;;;;;5.38;58.04;101338.69;5071636;28;20216;-66
2021/04/22 03:32:53;;;;;;;9.70;3.30;;;;;;;5.36;58.13;101337.88;5072591;28;20299;-68
2021/04/22 03:35:20;;;;;;;9.40;2.73;;;;;;;5.36;58.54;101331.75;5058347;28;20699;-68
2021/04/22 03:37:46;;;;;;;12.70;3.13;;;;;;;5.34;58.36;101330.91;5072214;28;20238;-66
2021/04/22 03:40:18;;;;;;;15.07;3.83;;;;;;;5.33;59.12;101322.13;5079451;22;20235;-90
2021/04/22 03:42:50;;;;;;;13.57;2.97;;;;;;;5.31;58.69;101320.44;5073408;28;20220;-90
2021/04/22 03:45:18;;;;;;;12.10;3.43;;;;;;;5.31;58.35;101310.75;5072461;28;20291;-90
2021/04/22 03:47:45;;;;;;;11.43;3.13;;;;;;;5.30;58.53;101322.22;5073206;28;20233;-90
2021/04/22 03:50:14;;;;;;;12.83;2.87;;;;;;;5.31;58.84;101325.72;5073946;28;20214;-90
2021/04/22 03:52:41;;;;;;;13.23;3.00;;;;;;;5.30;58.78;101327.50;5073149;28;20209;-90
2021/04/22 03:55:35;;;;;;;10.40;2.53;;;;;;;5.28;58.54;101321.41;5073369;28;20573;-90
2021/04/22 03:58:25;;;;;;;15.97;3.33;;;;;;;5.30;58.41;101324.00;5072246;28;20237;-90
2021/04/22 04:00:52;;;;;;;12.00;3.00;;;;;;;5.30;58.17;101327.50;5074411;28;20316;-90
2021/04/22 04:03:18;;;;;;;12.43;2.97;;;;;;;5.28;57.78;101329.31;5089421;28;20215;-91
2021/04/22 04:05:44;;;;;;;9.47;2.23;;;;;;;5.29;57.92;101328.41;5098890;28;20200;-90
2021/04/22 04:08:11;;;;;;;14.37;3.73;;;;;;;5.29;57.98;101331.06;5081186;28;20235;-90
2021/04/22 04:10:39;;;;;;;11.47;3.03;;;;;;;5.31;57.80;101331.00;5098596;28;20189;-90
2021/04/22 04:13:05;;;;;;;10.40;2.83;;;;;;;5.32;57.79;101332.75;5096805;28;20224;-90
2021/04/22 04:15:31;;;;;;;8.37;2.60;;;;;;;5.31;57.66;101329.22;5098930;28;20213;-91
2021/04/22 04:17:57;;;;;;;13.60;3.20;;;;;;;5.33;57.72;101337.97;5099026;28;20209;-90
2021/04/22 04:20:24;;;;;;;10.17;2.50;;;;;;;5.34;57.68;101330.91;5081747;28;20241;-90
2021/04/22 04:22:50;;;;;;;11.00;2.77;;;;;;;5.33;57.33;101334.47;5073715;28;20212;-90
2021/04/22 04:25:16;;;;;;;10.57;2.97;;;;;;;5.34;57.49;101337.06;5066980;28;20284;-89
2021/04/22 04:27:43;;;;;;;12.40;2.67;;;;;;;5.34;57.48;101336.19;5072910;28;20690;-90
2021/04/22 04:30:15;;;;;;;10.53;2.57;;;;;;;5.35;57.11;101330.88;5067381;28;20228;-90
2021/04/22 04:32:41;;;;;;;12.17;2.77;;;;;;;5.38;57.54;101338.69;5072945;28;20209;-90
2021/04/22 04:35:08;;;;;;;9.30;2.57;;;;;;;5.37;57.50;101336.13;5072944;28;20299;-90
2021/04/22 04:37:35;;;;;;;16.67;3.10;;;;;;;5.37;57.32;101334.34;5072532;28;20237;-89
2021/04/22 04:40:01;;;;;;;8.80;2.60;;;;;;;5.36;57.43;101345.81;5069817;28;20284;-91
2021/04/22 04:42:27;;;;;;;11.97;2.47;;;;;;;5.35;57.11;101344.06;5067098;28;20655;-91
2021/04/22 04:44:54;;;;;;;5.40;2.23;;;;;;;5.37;56.91;101342.25;5063265;28;20663;-90
2021/04/22 04:47:20;;;;;;;13.87;3.37;;;;;;;5.37;57.35;101351.97;5063602;28;20768;-90
2021/04/22 04:49:49;;;;;;;13.53;3.23;;;;;;;5.38;57.35;101349.25;5066930;28;20209;-91
2021/04/22 04:52:15;;;;;;;10.53;2.83;;;;;;;5.40;57.42;101355.34;5061951;28;20297;-90
2021/04/22 04:54:42;;;;;;;8.23;2.60;;;;;;;5.40;57.27;101350.06;5070611;28;20208;-90
2021/04/22 04:57:08;;;;;;;13.20;2.67;;;;;;;5.42;57.11;101344.75;5069279;28;20750;-90
2021/04/22 04:59:35;;;;;;;10.77;2.57;;;;;;;5.41;57.31;101343.00;5071358;28;20280;-90
2021/04/22 05:02:03;;;;;;;19.17;3.23;;;;;;;5.43;57.17;101347.34;5070291;28;20228;-90
2021/04/22 05:04:29;;;;;;;15.43;2.70;;;;;;;5.44;57.17;101351.72;5072063;28;20224;-89
2021/04/22 05:06:55;;;;;;;9.93;2.80;;;;;;;5.44;56.83;101367.56;5070994;28;20762;-90
2021/04/22 05:09:21;;;;;;;13.47;2.87;;;;;;;5.46;57.02;101376.31;5067939;28;20208;-90
2021/04/22 05:11:48;;;;;;;14.17;2.90;;;;;;;5.48;57.15;101376.25;5061683;28;20288;-90
2021/04/22 05:14:14;;;;;;;14.30;2.93;;;;;;;5.49;57.24;101378.00;5064819;28;20232;-89
2021/04/22 05:16:49;;;;;;;9.00;3.37;;;;;;;5.50;56.98;101380.59;5065070;28;20640;-91
2021/04/22 05:19:16;;;;;;;12.00;2.80;;;;;;;5.51;56.94;101374.41;5062936;28;20298;-89
2021/04/22 05:21:42;;;;;;;11.27;2.90;;;;;;;5.53;57.24;101385.78;5065335;28;21360;-90
2021/04/22 05:24:09;;;;;;;13.37;2.57;;;;;;;5.56;57.54;101385.66;5060455;28;20239;-89
2021/04/22 05:26:39;;;;;;;14.17;2.83;;;;;;;5.56;57.21;101380.38;5067724;28;20204;-90
2021/04/22 05:29:05;;;;;;;11.83;2.63;;;;;;;5.58;57.15;101389.13;5061401;28;20214;-91
2021/04/22 05:31:32;;;;;;;8.83;2.77;;;;;;;5.61;57.30;101388.16;5066237;28;20213;-91
2021/04/22 05:34:01;;;;;;;13.30;2.67;;;;;;;5.63;57.27;101385.47;5062813;28;20213;-90
2021/04/22 05:36:31;;;;;;;11.80;3.63;;;;;;;5.65;57.09;101388.94;5064026;28;20242;-91
2021/04/22 05:38:57;;;;;;;10.13;2.53;;;;;;;5.68;57.45;101391.50;5065989;28;20262;-92
2021/04/22 05:41:24;;;;;;;7.33;2.30;;;;;;;5.70;57.30;101387.03;5064473;28;20270;-92
2021/04/22 05:43:50;;;;;;;9.23;2.80;;;;;;;5.73;57.17;101392.22;5059192;28;20205;-89
2021/04/22 05:46:16;;;;;;;13.07;3.80;;;;;;;5.76;57.39;101390.31;5071221;28;20258;-91
2021/04/22 05:48:42;;;;;;;9.77;2.63;;;;;;;5.79;57.02;101392.88;5065483;28;20756;-91
2021/04/22 05:51:49;;;;;;;11.43;2.90;;;;;;;5.81;57.20;101398.13;5063769;28;20230;-92
2021/04/22 05:54:15;;;;;;;9.63;3.10;;;;;;;5.85;57.14;101394.47;5064997;28;20216;-90
2021/04/22 05:56:41;;;;;;;11.70;2.70;;;;;;;5.88;57.09;101397.03;5060116;28;20197;-90
2021/04/22 05:59:08;;;;;;;9.27;3.03;;;;;;;5.92;57.29;101398.66;5064558;28;20204;-90
2021/04/22 06:01:34;;;;;;;10.07;2.50;;;;;;;5.97;57.01;101404.66;5066730;28;20248;-89
2021/04/22 06:04:00;;;;;;;11.13;2.97;;;;;;;6.02;56.92;101407.19;5061882;28;20629;-90
2021/04/22 06:06:26;;;;;;;11.03;2.77;;;;;;;6.06;57.01;101407.03;5058942;28;20236;-90
2021/04/22 06:08:53;;;;;;;6.40;2.23;;;;;;;6.10;56.58;101398.06;5063018;28;20296;-90
2021/04/22 06:11:21;;;;;;;10.73;2.60;;;;;;;6.10;56.23;101398.06;5070188;28;20205;-90
2021/04/22 06:17:00;;;;;;;10.83;2.47;;;;;;;6.20;55.98;101414.50;5050674;28;20256;-91
2021/04/22 06:19:43;;;;;;;8.50;2.20;;;;;;;6.26;55.79;101409.03;5072869;28;20224;-90
2021/04/22 06:22:19;;;;;;;8.07;2.80;;;;;;;6.30;55.41;101415.06;5066499;28;20225;-91
2021/04/22 06:24:46;;;;;;;12.33;2.53;;;;;;;6.35;55.54;101416.63;5064500;28;20215;-91
2021/04/22 06:27:15;;;;;;;7.63;2.27;;;;;;;6.40;55.21;101420.00;5069061;28;20230;-90
2021/04/22 06:36:59;;;;;;;9.87;2.50;;;;;;;6.55;55.47;101411.53;5022494;28;20197;-91
2021/04/22 06:39:25;;;;;;;9.20;2.37;;;;;;;6.57;55.36;101419.44;5026223;28;20762;-91
2021/04/22 06:42:10;;;;;;;13.60;2.90;;;;;;;6.61;55.02;101429.00;5027931;28;21856;-91
2021/04/22 06:44:49;;;;;;;9.93;2.40;;;;;;;6.67;55.29;101430.53;5061513;28;20659;-91
2021/04/22 06:47:25;;;;;;;9.20;2.20;;;;;;;6.69;55.24;101432.22;5059728;28;20248;-91
2021/04/22 06:49:51;;;;;;;9.80;2.47;;;;;;;6.75;55.10;101424.06;5066147;28;20577;-91
2021/04/22 06:52:19;;;;;;;16.30;2.90;;;;;;;6.83;55.34;101429.94;5062148;28;20198;-89
2021/04/22 06:55:05;;;;;;;10.07;2.80;;;;;;;6.87;55.00;101422.75;5072461;28;20258;-90
2021/04/22 06:57:32;;;;;;;12.30;2.73;;;;;;;6.93;55.18;101434.00;5065500;28;20236;-90
2021/04/22 07:00:12;;;;;;;10.93;2.97;;;;;;;6.99;55.20;101437.38;5066017;28;20212;-90
2021/04/22 07:02:57;;;;;;;14.93;2.70;;;;;;;7.02;54.82;101437.22;5073242;28;20607;-91
2021/04/22 07:05:35;;;;;;;9.37;2.70;;;;;;;7.05;54.90;101440.66;5075357;28;20209;-90
2021/04/22 07:08:04;;;;;;;10.10;2.87;;;;;;;7.10;55.18;101429.88;5081550;28;20232;-90
2021/04/22 07:10:47;;;;;;;;;;;;;;;;;;;;;
2021/04/22 07:13:15;;;;;;;9.07;3.13;;;;;;;7.32;56.04;101444.09;5086414;28;20200;-90
2021/04/22 07:15:55;;;;;;;9.00;2.60;;;;;;;7.47;55.10;101434.69;5097272;28;20208;-90
2021/04/22 07:21:43;;;;;;;8.10;2.20;;;;;;;7.81;54.46;101439.53;5045320;28;20268;-90
2021/04/22 07:28:02;;;;;;;9.63;2.27;;;;;;;8.07;53.54;101433.19;5072479;28;20225;-91
2021/04/22 07:34:04;;;;;;;9.03;2.17;;;;;;;8.37;52.50;101445.25;5040739;28;20213;-90
2021/04/22 07:36:36;;;;;;;9.17;3.07;;;;;;;8.44;52.65;101437.88;5069665;28;20228;-90
2021/04/22 07:39:03;;;;;;;6.37;2.30;;;;;;;8.56;51.56;101445.34;5073523;28;20205;-90
2021/04/22 07:41:30;;;;;;;7.47;2.40;;;;;;;8.60;51.62;101444.25;5092919;28;20229;-91
2021/04/22 07:43:56;;;;;;;10.43;2.93;;;;;;;8.66;51.65;101444.00;5098360;28;20223;-90
2021/04/22 07:46:22;;;;;;;7.10;2.10;;;;;;;8.69;51.01;101452.72;5081079;28;20236;-90
2021/04/22 07:49:07;;;;;;;17.00;2.83;;;;;;;8.67;50.98;101456.38;5073733;28;20311;-90
2021/04/22 07:51:33;;;;;;;7.30;2.00;;;;;;;8.66;50.57;101458.16;5079106;28;20197;-89
2021/04/22 07:54:02;;;;;;;9.60;3.17;;;;;;;8.66;50.68;101467.91;5096846;28;20243;-91
2021/04/22 07:56:28;;;;;;;9.07;2.90;;;;;;;8.63;50.44;101468.03;5093232;28;20208;-90
2021/04/22 07:59:00;;;;;;;6.93;2.83;;;;;;;8.65;50.83;101460.88;5082147;28;20197;-91
2021/04/22 08:04:08;;;;;;;10.33;2.53;;;;;;;8.75;50.44;101477.28;5060503;28;20282;-90
2021/04/22 08:06:35;;;;;;;10.03;2.50;;;;;;;8.78;50.69;101467.38;5070942;28;20836;-89
2021/04/22 08:12:23;;;;;;;9.00;1.97;;;;;;;8.84;50.23;101472.44;5002330;28;20302;-91
2021/04/22 08:14:50;;;;;;;8.17;2.60;;;;;;;8.85;49.73;101479.47;5006508;28;20681;-89
2021/04/22 08:17:16;;;;;;;9.77;3.03;;;;;;;8.88;49.73;101483.81;5051195;28;20316;-87
2021/04/22 08:19:43;;;;;;;9.23;2.70;;;;;;;8.86;49.90;101488.31;5067061;28;20209;-89
2021/04/22 08:22:09;;;;;;;11.23;2.37;;;;;;;8.87;50.27;101493.56;5069869;28;20224;-89
2021/04/22 08:24:35;;;;;;;9.27;2.67;;;;;;;8.90;50.43;101493.44;5066464;28;20633;-89
2021/04/22 08:27:02;;;;;;;9.73;2.33;;;;;;;8.98;50.42;101485.97;5064857;28;20224;-89
2021/04/22 08:29:30;;;;;;;6.30;2.17;;;;;;;9.03;49.63;101486.66;5067638;28;20267;-89
2021/04/22 08:31:56;;;;;;;9.80;2.13;;;;;;;9.05;49.24;101498.09;5066689;28;20205;-87
2021/04/22 08:34:25;;;;;;;12.93;2.90;;;;;;;9.03;49.09;101499.94;5061299;28;20289;-90
2021/04/22 08:36:54;;;;;;;8.27;3.13;;;;;;;9.03;49.42;101505.25;5067670;28;20229;-90
2021/04/22 08:42:44;;;;;;;8.17;2.40;;;;;;;9.08;49.52;101499.75;4997382;28;20302;-91
2021/04/22 08:45:13;;;;;;;11.97;2.60;;;;;;;9.07;49.58;101499.81;5067724;28;20545;-90
2021/04/22 08:47:41;;;;;;;8.73;2.87;;;;;;;9.08;48.93;101498.88;5070886;28;20703;-90
2021/04/22 08:50:12;;;;;;;9.37;2.63;;;;;;;9.06;48.57;101496.28;5073219;28;20218;-92
2021/04/22 08:56:16;;;;;;;7.07;2.40;;;;;;;9.06;48.75;101509.56;5044933;28;20212;-92
2021/04/22 08:58:50;;;;;;;8.23;2.30;;;;;;;9.14;48.94;101502.13;5073738;28;20567;-92
2021/04/22 09:01:44;;;;;;;;;;;;;;;;;;;;;
2021/04/22 09:08:15;;;;;;;11.33;2.53;;;;;;;9.58;48.43;101505.47;4974083;28;20231;-93
2021/04/22 09:10:53;;;;;;;8.67;2.57;;;;;;;9.57;48.43;101511.72;5034415;28;20212;-92
2021/04/22 09:53:45;;;;;;;5.50;1.60;;;;;;;10.40;44.62;101503.34;5096649;22;20247;-67
2021/04/22 09:56:12;;;;;;;7.17;2.50;;;;;;;10.44;44.76;101511.13;5058366;28;20710;-67
2021/04/22 09:58:39;;;;;;;6.53;2.17;;;;;;;10.51;44.63;101505.50;5057927;28;20208;-68
2021/04/22 10:01:08;;;;;;;3.97;2.00;;;;;;;10.56;43.86;101503.50;5057181;28;20297;-68
2021/04/22 10:03:34;;;;;;;5.93;1.47;;;;;;;10.65;43.53;101503.03;5059918;28;20208;-68
2021/04/22 10:06:02;;;;;;;6.03;1.70;;;;;;;10.73;42.75;101498.19;5059420;28;20233;-67
2021/04/22 10:08:29;;;;;;;8.07;2.20;;;;;;;10.81;42.10;101511.09;5081633;23;20185;-71
2021/04/22 10:10:59;;;;;;;7.70;1.80;;;;;;;10.87;42.33;101513.47;5076037;28;20303;-69
2021/04/22 10:13:26;;;;;;;7.70;2.03;;;;;;;10.95;41.98;101517.44;5080508;28;20563;-70
2021/04/22 10:15:54;;;;;;;4.00;1.90;;;;;;;10.99;41.74;101503.03;5082409;28;20255;-70
2021/04/22 10:18:20;;;;;;;8.30;2.40;;;;;;;11.00;41.63;101504.75;5084670;27;20261;-69
2021/04/22 10:20:48;;;;;;;7.07;2.37;;;;;;;11.00;41.51;101507.44;5106912;27;20204;-70
2021/04/22 10:23:14;;;;;;;7.90;2.47;;;;;;;11.03;41.49;101511.75;5101651;28;20220;-69
2021/04/22 10:25:43;;;;;;;5.57;2.47;;;;;;;11.09;41.83;101516.75;5109743;28;20227;-69
2021/04/22 10:28:12;;;;;;;9.80;2.43;;;;;;;11.13;41.69;101513.84;5097105;28;20196;-69
2021/04/22 10:30:42;;;;;;;6.93;1.90;;;;;;;11.12;41.19;101520.09;5099174;27;20204;-70
2021/04/22 10:33:09;;;;;;;7.83;2.20;;;;;;;11.16;41.38;101511.97;5095439;28;20227;-70
2021/04/22 10:35:38;;;;;;;6.67;1.93;;;;;;;11.19;41.43;101509.13;5095712;28;20209;-70
2021/04/22 10:38:05;;;;;;;7.83;2.20;;;;;;;11.27;41.31;101509.63;5096448;28;20618;-69
2021/04/22 10:40:33;;;;;;;7.37;2.07;;;;;;;11.35;40.96;101515.38;5095744;28;20666;-69
2021/04/22 10:43:01;;;;;;;7.77;2.57;;;;;;;11.42;41.07;101511.47;5094372;28;20224;-70
2021/04/22 10:45:29;;;;;;;6.93;1.90;;;;;;;11.49;40.42;101516.38;5097567;28;20204;-69
2021/04/22 10:47:55;;;;;;;10.70;2.43;;;;;;;11.50;40.05;101517.22;5098535;28;20207;-69
2021/04/22 10:50:28;;;;;;;4.50;2.23;;;;;;;11.53;40.14;101506.41;5107013;28;20231;-70
2021/04/22 10:52:55;;;;;;;5.90;2.10;;;;;;;11.55;40.36;101519.66;5100367;28;20207;-70
2021/04/22 10:55:24;;;;;;;6.80;2.33;;;;;;;11.54;39.92;101510.78;5099476;28;20212;-70
2021/04/22 10:57:53;;;;;;;8.17;2.73;;;;;;;11.54;40.01;101518.81;5101284;28;20222;-70
2021/04/22 11:00:23;;;;;;;7.17;2.63;;;;;;;11.46;39.75;101511.19;5105660;28;20280;-70
2021/04/22 11:02:51;;;;;;;8.57;2.37;;;;;;;11.43;40.06;101518.53;5106018;28;20310;-69
2021/04/22 11:05:23;;;;;;;5.40;2.20;;;;;;;11.46;40.30;101513.88;5101483;28;20204;-70
2021/04/22 11:08:04;;;;;;;5.40;2.30;;;;;;;11.50;40.35;101514.56;5109096;28;20200;-70
2021/04/22 11:10:39;;;;;;;9.53;2.30;;;;;;;11.55;40.34;101517.84;5105484;28;20290;-70
2021/04/22 11:13:14;;;;;;;7.03;2.33;;;;;;;11.57;40.14;101513.31;5098656;28;20196;-69
2021/04/22 11:15:44;;;;;;;8.63;2.60;;;;;;;11.63;39.81;101518.31;5102165;27;20518;-70
2021/04/22 11:18:13;;;;;;;10.30;2.20;;;;;;;11.69;40.50;101517.09;5097984;28;20205;-70
2021/04/22 11:20:41;;;;;;;5.23;1.70;;;;;;;11.77;39.70;101515.78;5100233;28;20210;-68
2021/04/22 11:23:16;;;;;;;5.00;1.63;;;;;;;11.79;39.15;101524.59;5104314;28;20227;-69
2021/04/22 11:25:50;;;;;;;7.90;2.10;;;;;;;11.81;38.94;101512.03;5098676;28;20218;-67
2021/04/22 11:28:16;;;;;;;4.90;2.40;;;;;;;11.87;39.67;101516.13;5105171;27;20214;-69
2021/04/22 11:30:43;;;;;;;7.13;2.43;;;;;;;11.96;39.27;101528.13;5120704;27;20210;-70
2021/04/22 11:33:09;;;;;;;9.13;2.47;;;;;;;11.97;39.18;101520.03;5099542;28;20197;-69
2021/04/22 11:35:37;;;;;;;6.97;2.60;;;;;;;11.95;38.74;101510.38;5095584;28;20208;-69
2021/04/22 11:38:08;;;;;;;6.63;2.40;;;;;;;11.92;38.81;101521.22;5098950;28;20200;-69
2021/04/22 11:40:39;;;;;;;6.70;2.40;;;;;;;11.95;39.31;101524.59;5097195;28;20673;-69
2021/04/22 11:43:06;;;;;;;6.97;2.53;;;;;;;12.01;39.62;101516.22;5093925;28;20220;-70
2021/04/22 11:45:34;;;;;;;4.77;2.27;;;;;;;12.12;39.79;101515.66;5097186;28;20211;-69
2021/04/22 11:48:02;;;;;;;8.40;2.77;;;;;;;12.16;39.31;101520.75;5094523;28;20197;-68
2021/04/22 11:50:30;;;;;;;8.97;2.90;;;;;;;12.20;39.13;101521.41;5094686;28;20224;-69
2021/04/22 11:52:59;;;;;;;8.03;2.77;;;;;;;12.21;39.14;101517.78;5100653;27;20200;-69
2021/04/22 11:55:28;;;;;;;6.10;2.70;;;;;;;12.18;39.37;101524.16;5096094;28;20197;-69
2021/04/22 11:58:00;;;;;;;8.13;2.87;;;;;;;12.18;39.60;101511.78;5096614;28;20589;-70
2021/04/22 12:00:30;;;;;;;7.50;2.80;;;;;;;12.17;39.73;101513.59;5094112;28;20224;-69
2021/04/22 12:02:58;;;;;;;6.17;2.70;;;;;;;12.20;39.65;101516.06;5094597;28;20224;-69
2021/04/22 12:05:24;;;;;;;8.40;2.70;;;;;;;12.23;39.65;101512.38;5094726;28;20210;-68
2021/04/22 12:08:00;;;;;;;6.47;2.53;;;;;;;12.28;39.93;101519.19;5095390;28;20206;-69
2021/04/22 12:10:28;;;;;;;6.17;2.53;;;;;;;12.33;39.37;101501.09;5096247;28;20228;-69
2021/04/22 12:13:03;;;;;;;4.90;2.30;;;;;;;12.33;39.19;101500.22;5092854;28;20261;-68
2021/04/22 12:15:29;;;;;;;10.33;2.33;;;;;;;12.32;39.01;101507.38;5100640;28;20204;-69
2021/04/22 12:17:55;;;;;;;6.67;2.23;;;;;;;12.30;38.83;101517.28;5093634;28;20197;-70
2021/04/22 12:20:21;;;;;;;7.00;2.17;;;;;;;12.27;38.52;101508.59;5101974;28;20223;-69
2021/04/22 12:22:48;;;;;;;6.37;2.10;;;;;;;12.23;38.43;101505.22;5094421;28;20221;-69
2021/04/22 12:25:17;;;;;;;8.40;2.37;;;;;;;12.18;38.52;101508.13;5100778;28;20230;-68
2021/04/22 12:27:47;;;;;;;5.70;2.30;;;;;;;12.13;38.60;101512.91;5094834;28;20211;-70
2021/04/22 12:30:22;;;;;;;7.47;2.70;;;;;;;12.10;38.60;101512.19;5094820;28;20277;-69
2021/04/22 12:32:54;;;;;;;7.10;2.47;;;;;;;12.10;38.73;101507.72;5092914;28;20193;-69
2021/04/22 12:35:22;;;;;;;7.23;2.93;;;;;;;12.12;38.81;101518.31;5091414;28;20214;-70
2021/04/22 12:37:49;;;;;;;10.80;2.40;;;;;;;12.13;38.63;101528.06;5091364;28;20208;-70
2021/04/22 12:40:17;;;;;;;8.67;2.63;;;;;;;12.14;38.85;101519.09;5092330;28;20239;-70
2021/04/22 12:42:44;;;;;;;5.57;2.03;;;;;;;12.12;38.51;101512.97;5092033;28;20234;-70
2021/04/22 12:45:14;;;;;;;6.30;2.23;;;;;;;12.12;38.43;101502.31;5090714;28;20492;-70
2021/04/22 12:47:43;;;;;;;5.90;2.20;;;;;;;12.15;38.54;101505.66;5094200;28;20208;-70
2021/04/22 12:50:12;;;;;;;4.13;2.00;;;;;;;12.24;39.01;101511.41;5091514;28;20602;-70
2021/04/22 12:52:38;;;;;;;8.57;2.50;;;;;;;12.33;38.88;101501.09;5092486;28;20681;-69